sensor_id;sensor_type;location;lat;lon;timestamp;pressure;altitude;pressure_sealevel;temperature;humidity
39954;BME280;25631;51.516;-0.470;2023-05-19T00:01:53;102516.27;;;15.63;27.44
39954;BME280;25631;51.516;-0.470;2023-05-19T00:04:30;102518.26;;;15.43;27.45
39954;BME280;25631;51.516;-0.470;2023-05-19T00:07:09;102517.04;;;15.79;27.47
39954;BME280;25631;51.516;-0.470;2023-05-19T00:09:47;102514.26;;;15.38;27.53
39954;BME280;25631;51.516;-0.470;2023-05-19T00:12:24;102513.95;;;15.34;27.58
39954;BME280;25631;51.516;-0.470;2023-05-19T00:15:01;102514.90;;;15.45;27.63
39954;BME280;25631;51.516;-0.470;2023-05-19T00:17:38;102515.26;;;15.52;27.69
39954;BME280;25631;51.516;-0.470;2023-05-19T00:20:14;102515.95;;;15.06;27.73
39954;BME280;25631;51.516;-0.470;2023-05-19T00:22:51;102517.82;;;15.40;27.76
39954;BME280;25631;51.516;-0.470;2023-05-19T00:25:27;102517.24;;;15.17;27.88
39954;BME280;25631;51.516;-0.470;2023-05-19T00:28:03;102514.27;;;15.07;28.00
39954;BME280;25631;51.516;-0.470;2023-05-19T00:30:40;102513.94;;;14.89;28.06
39954;BME280;25631;51.516;-0.470;2023-05-19T00:33:16;102511.84;;;15.00;28.09
39954;BME280;25631;51.516;-0.470;2023-05-19T00:35:53;102513.43;;;14.99;28.10
39954;BME280;25631;51.516;-0.470;2023-05-19T00:38:30;102514.77;;;14.81;28.04
39954;BME280;25631;51.516;-0.470;2023-05-19T00:41:12;102513.82;;;14.90;28.05
39954;BME280;25631;51.516;-0.470;2023-05-19T00:43:49;102514.32;;;14.89;27.93
39954;BME280;25631;51.516;-0.470;2023-05-19T00:46:26;102516.10;;;14.96;28.05
39954;BME280;25631;51.516;-0.470;2023-05-19T00:49:03;102511.79;;;14.94;28.15
39954;BME280;25631;51.516;-0.470;2023-05-19T00:51:40;102509.99;;;14.80;28.18
39954;BME280;25631;51.516;-0.470;2023-05-19T00:54:17;102506.30;;;14.77;28.25
39954;BME280;25631;51.516;-0.470;2023-05-19T00:56:56;102507.12;;;14.76;28.12
39954;BME280;25631;51.516;-0.470;2023-05-19T00:59:34;102507.94;;;14.83;28.05
39954;BME280;25631;51.516;-0.470;2023-05-19T01:02:10;102506.38;;;14.87;28.04
39954;BME280;25631;51.516;-0.470;2023-05-19T01:04:47;102507.47;;;14.89;28.07
39954;BME280;25631;51.516;-0.470;2023-05-19T01:07:26;102508.81;;;14.75;28.03
39954;BME280;25631;51.516;-0.470;2023-05-19T01:10:03;102507.69;;;15.01;28.05
39954;BME280;25631;51.516;-0.470;2023-05-19T01:12:40;102507.78;;;14.73;28.00
39954;BME280;25631;51.516;-0.470;2023-05-19T01:15:17;102508.36;;;14.79;28.01
39954;BME280;25631;51.516;-0.470;2023-05-19T01:17:58;102509.61;;;14.80;27.98
39954;BME280;25631;51.516;-0.470;2023-05-19T01:20:40;102511.64;;;14.72;27.95
39954;BME280;25631;51.516;-0.470;2023-05-19T01:23:26;102517.21;;;14.74;27.84
39954;BME280;25631;51.516;-0.470;2023-05-19T01:26:15;102524.63;;;14.74;27.79
39954;BME280;25631;51.516;-0.470;2023-05-19T01:29:07;102524.11;;;14.74;27.83
39954;BME280;25631;51.516;-0.470;2023-05-19T01:31:53;102519.57;;;14.66;27.76
39954;BME280;25631;51.516;-0.470;2023-05-19T01:34:31;102515.60;;;14.53;27.77
39954;BME280;25631;51.516;-0.470;2023-05-19T01:37:08;102509.54;;;14.45;27.75
39954;BME280;25631;51.516;-0.470;2023-05-19T01:39:47;102509.24;;;14.61;27.76
39954;BME280;25631;51.516;-0.470;2023-05-19T01:42:26;102507.68;;;14.45;27.81
39954;BME280;25631;51.516;-0.470;2023-05-19T01:45:03;102506.15;;;14.49;27.89
39954;BME280;25631;51.516;-0.470;2023-05-19T01:47:42;102502.33;;;14.68;27.95
39954;BME280;25631;51.516;-0.470;2023-05-19T01:50:19;102500.50;;;14.58;27.95
39954;BME280;25631;51.516;-0.470;2023-05-19T01:52:57;102498.59;;;14.43;27.99
39954;BME280;25631;51.516;-0.470;2023-05-19T01:55:34;102500.49;;;14.44;28.10
39954;BME280;25631;51.516;-0.470;2023-05-19T01:58:17;102501.16;;;14.60;28.04
39954;BME280;25631;51.516;-0.470;2023-05-19T02:00:59;102502.87;;;14.40;27.95
39954;BME280;25631;51.516;-0.470;2023-05-19T02:03:44;102504.28;;;14.40;27.96
39954;BME280;25631;51.516;-0.470;2023-05-19T02:06:38;102505.63;;;14.38;27.93
39954;BME280;25631;51.516;-0.470;2023-05-19T02:09:21;102502.27;;;14.28;27.96
39954;BME280;25631;51.516;-0.470;2023-05-19T02:12:02;102502.54;;;14.23;28.03
39954;BME280;25631;51.516;-0.470;2023-05-19T02:14:45;102496.19;;;14.42;28.03
39954;BME280;25631;51.516;-0.470;2023-05-19T02:17:26;102493.07;;;14.25;28.09
39954;BME280;25631;51.516;-0.470;2023-05-19T02:20:06;102492.05;;;14.35;28.00
39954;BME280;25631;51.516;-0.470;2023-05-19T02:22:43;102493.04;;;14.54;27.98
39954;BME280;25631;51.516;-0.470;2023-05-19T02:25:20;102492.91;;;14.12;27.94
39954;BME280;25631;51.516;-0.470;2023-05-19T02:27:57;102495.74;;;14.12;27.90
39954;BME280;25631;51.516;-0.470;2023-05-19T02:30:34;102500.13;;;14.20;27.92
39954;BME280;25631;51.516;-0.470;2023-05-19T02:33:10;102500.98;;;13.96;27.93
39954;BME280;25631;51.516;-0.470;2023-05-19T02:35:47;102499.04;;;14.19;27.98
39954;BME280;25631;51.516;-0.470;2023-05-19T02:38:23;102500.78;;;14.06;28.11
39954;BME280;25631;51.516;-0.470;2023-05-19T02:41:00;102498.36;;;14.18;28.19
39954;BME280;25631;51.516;-0.470;2023-05-19T02:43:36;102497.11;;;14.14;28.22
39954;BME280;25631;51.516;-0.470;2023-05-19T02:46:13;102495.28;;;14.15;28.27
39954;BME280;25631;51.516;-0.470;2023-05-19T02:48:49;102496.30;;;14.22;28.29
39954;BME280;25631;51.516;-0.470;2023-05-19T02:51:26;102492.05;;;14.25;28.20
39954;BME280;25631;51.516;-0.470;2023-05-19T02:54:03;102487.95;;;14.27;28.11
39954;BME280;25631;51.516;-0.470;2023-05-19T02:56:39;102484.33;;;14.28;28.06
39954;BME280;25631;51.516;-0.470;2023-05-19T02:59:16;102481.97;;;14.53;28.09
39954;BME280;25631;51.516;-0.470;2023-05-19T03:01:54;102486.03;;;14.41;28.06
39954;BME280;25631;51.516;-0.470;2023-05-19T03:04:31;102491.34;;;13.94;28.15
39954;BME280;25631;51.516;-0.470;2023-05-19T03:07:07;102492.39;;;14.14;28.12
39954;BME280;25631;51.516;-0.470;2023-05-19T03:09:44;102492.04;;;14.28;28.07
39954;BME280;25631;51.516;-0.470;2023-05-19T03:12:21;102492.90;;;14.20;28.09
39954;BME280;25631;51.516;-0.470;2023-05-19T03:14:57;102489.88;;;13.72;28.15
39954;BME280;25631;51.516;-0.470;2023-05-19T03:17:34;102488.18;;;13.74;28.20
39954;BME280;25631;51.516;-0.470;2023-05-19T03:20:11;102487.85;;;13.96;28.28
39954;BME280;25631;51.516;-0.470;2023-05-19T03:22:47;102486.55;;;14.06;28.32
39954;BME280;25631;51.516;-0.470;2023-05-19T03:25:24;102481.03;;;13.85;28.37
39954;BME280;25631;51.516;-0.470;2023-05-19T03:28:01;102479.34;;;13.95;28.42
39954;BME280;25631;51.516;-0.470;2023-05-19T03:30:37;102477.15;;;13.77;28.50
39954;BME280;25631;51.516;-0.470;2023-05-19T03:33:15;102481.75;;;13.73;28.46
39954;BME280;25631;51.516;-0.470;2023-05-19T03:35:52;102482.27;;;14.09;28.45
39954;BME280;25631;51.516;-0.470;2023-05-19T03:38:28;102479.44;;;14.00;28.42
39954;BME280;25631;51.516;-0.470;2023-05-19T03:41:04;102479.56;;;14.02;28.46
39954;BME280;25631;51.516;-0.470;2023-05-19T03:43:41;102477.86;;;13.78;28.53
39954;BME280;25631;51.516;-0.470;2023-05-19T03:46:18;102478.16;;;13.78;28.57
39954;BME280;25631;51.516;-0.470;2023-05-19T03:48:54;102475.39;;;13.98;28.62
39954;BME280;25631;51.516;-0.470;2023-05-19T03:51:30;102473.69;;;13.95;28.64
39954;BME280;25631;51.516;-0.470;2023-05-19T03:54:07;102478.79;;;13.85;28.66
39954;BME280;25631;51.516;-0.470;2023-05-19T03:56:44;102478.70;;;14.01;28.76
39954;BME280;25631;51.516;-0.470;2023-05-19T03:59:20;102482.66;;;13.66;28.79
39954;BME280;25631;51.516;-0.470;2023-05-19T04:01:57;102481.29;;;13.80;28.85
39954;BME280;25631;51.516;-0.470;2023-05-19T04:04:33;102477.27;;;13.91;29.03
39954;BME280;25631;51.516;-0.470;2023-05-19T04:07:10;102477.77;;;13.76;29.12
39954;BME280;25631;51.516;-0.470;2023-05-19T04:09:46;102479.36;;;13.72;29.23
39954;BME280;25631;51.516;-0.470;2023-05-19T04:12:23;102479.73;;;13.47;29.28
39954;BME280;25631;51.516;-0.470;2023-05-19T04:14:59;102478.42;;;13.86;29.38
39954;BME280;25631;51.516;-0.470;2023-05-19T04:17:36;102482.38;;;13.48;29.34
39954;BME280;25631;51.516;-0.470;2023-05-19T04:20:13;102485.05;;;13.71;29.42
39954;BME280;25631;51.516;-0.470;2023-05-19T04:22:50;102484.62;;;13.68;29.55
39954;BME280;25631;51.516;-0.470;2023-05-19T04:25:26;102485.14;;;13.43;29.70
39954;BME280;25631;51.516;-0.470;2023-05-19T04:28:03;102482.86;;;13.70;29.80
39954;BME280;25631;51.516;-0.470;2023-05-19T04:30:39;102483.05;;;13.31;29.87
39954;BME280;25631;51.516;-0.470;2023-05-19T04:33:16;102480.31;;;13.70;29.95
39954;BME280;25631;51.516;-0.470;2023-05-19T04:35:52;102481.95;;;13.36;30.13
39954;BME280;25631;51.516;-0.470;2023-05-19T04:38:29;102485.55;;;13.45;30.07
39954;BME280;25631;51.516;-0.470;2023-05-19T04:41:05;102485.71;;;13.44;30.14
39954;BME280;25631;51.516;-0.470;2023-05-19T04:43:42;102483.19;;;13.34;30.28
39954;BME280;25631;51.516;-0.470;2023-05-19T04:46:18;102483.35;;;13.34;30.38
39954;BME280;25631;51.516;-0.470;2023-05-19T04:48:55;102478.54;;;13.50;30.44
39954;BME280;25631;51.516;-0.470;2023-05-19T04:51:32;102477.56;;;13.47;30.57
39954;BME280;25631;51.516;-0.470;2023-05-19T04:54:09;102475.85;;;13.47;30.70
39954;BME280;25631;51.516;-0.470;2023-05-19T04:56:46;102475.75;;;13.62;30.75
39954;BME280;25631;51.516;-0.470;2023-05-19T04:59:22;102471.98;;;13.49;30.73
39954;BME280;25631;51.516;-0.470;2023-05-19T05:01:59;102474.06;;;13.92;30.75
39954;BME280;25631;51.516;-0.470;2023-05-19T05:04:35;102475.19;;;13.48;30.77
39954;BME280;25631;51.516;-0.470;2023-05-19T05:07:12;102473.13;;;13.47;30.82
39954;BME280;25631;51.516;-0.470;2023-05-19T05:09:48;102476.23;;;13.82;30.78
39954;BME280;25631;51.516;-0.470;2023-05-19T05:12:25;102484.65;;;13.87;30.85
39954;BME280;25631;51.516;-0.470;2023-05-19T05:15:03;102491.16;;;13.64;30.88
39954;BME280;25631;51.516;-0.470;2023-05-19T05:17:40;102491.25;;;13.72;30.92
39954;BME280;25631;51.516;-0.470;2023-05-19T05:20:18;102485.99;;;13.77;30.97
39954;BME280;25631;51.516;-0.470;2023-05-19T05:22:55;102481.86;;;13.59;31.11
39954;BME280;25631;51.516;-0.470;2023-05-19T05:25:33;102480.91;;;13.53;31.25
39954;BME280;25631;51.516;-0.470;2023-05-19T05:28:09;102482.93;;;13.74;31.35
39954;BME280;25631;51.516;-0.470;2023-05-19T05:30:46;102483.39;;;13.65;31.33
39954;BME280;25631;51.516;-0.470;2023-05-19T05:33:23;102477.28;;;13.56;31.39
39954;BME280;25631;51.516;-0.470;2023-05-19T05:35:59;102474.47;;;13.92;31.26
39954;BME280;25631;51.516;-0.470;2023-05-19T05:38:35;102471.25;;;13.85;31.29
39954;BME280;25631;51.516;-0.470;2023-05-19T05:41:12;102470.00;;;13.74;31.37
39954;BME280;25631;51.516;-0.470;2023-05-19T05:43:48;102469.22;;;13.91;31.36
39954;BME280;25631;51.516;-0.470;2023-05-19T05:46:25;102465.69;;;14.03;31.35
39954;BME280;25631;51.516;-0.470;2023-05-19T05:49:02;102461.17;;;13.87;31.37
39954;BME280;25631;51.516;-0.470;2023-05-19T05:51:39;102455.18;;;13.85;31.45
39954;BME280;25631;51.516;-0.470;2023-05-19T05:54:19;102448.29;;;13.90;31.43
39954;BME280;25631;51.516;-0.470;2023-05-19T05:56:57;102447.07;;;13.89;31.44
39954;BME280;25631;51.516;-0.470;2023-05-19T05:59:34;102451.61;;;13.97;31.33
39954;BME280;25631;51.516;-0.470;2023-05-19T06:02:10;102456.91;;;14.04;31.40
39954;BME280;25631;51.516;-0.470;2023-05-19T06:04:47;102458.68;;;13.99;31.37
39954;BME280;25631;51.516;-0.470;2023-05-19T06:07:23;102461.64;;;13.99;31.35
39954;BME280;25631;51.516;-0.470;2023-05-19T06:10:00;102461.36;;;13.96;31.43
39954;BME280;25631;51.516;-0.470;2023-05-19T06:12:36;102458.45;;;13.95;31.42
39954;BME280;25631;51.516;-0.470;2023-05-19T06:15:13;102456.84;;;13.88;31.43
39954;BME280;25631;51.516;-0.470;2023-05-19T06:17:50;102457.68;;;14.22;31.33
39954;BME280;25631;51.516;-0.470;2023-05-19T06:20:26;102455.14;;;14.19;31.33
39954;BME280;25631;51.516;-0.470;2023-05-19T06:23:02;102445.36;;;14.25;31.26
39954;BME280;25631;51.516;-0.470;2023-05-19T06:25:39;102441.84;;;14.29;31.18
39954;BME280;25631;51.516;-0.470;2023-05-19T06:28:15;102444.47;;;13.93;31.28
39954;BME280;25631;51.516;-0.470;2023-05-19T06:30:52;102453.23;;;13.83;31.26
39954;BME280;25631;51.516;-0.470;2023-05-19T06:33:29;102460.68;;;14.24;30.94
39954;BME280;25631;51.516;-0.470;2023-05-19T06:36:06;102461.37;;;14.16;30.75
39954;BME280;25631;51.516;-0.470;2023-05-19T06:38:43;102464.05;;;14.13;30.70
39954;BME280;25631;51.516;-0.470;2023-05-19T06:41:19;102465.43;;;14.35;30.50
39954;BME280;25631;51.516;-0.470;2023-05-19T06:43:56;102463.23;;;14.47;30.55
39954;BME280;25631;51.516;-0.470;2023-05-19T06:46:33;102465.75;;;14.28;30.51
39954;BME280;25631;51.516;-0.470;2023-05-19T06:49:09;102466.21;;;14.52;30.53
39954;BME280;25631;51.516;-0.470;2023-05-19T06:51:46;102470.70;;;14.41;30.32
39954;BME280;25631;51.516;-0.470;2023-05-19T06:54:22;102479.93;;;14.38;29.61
39954;BME280;25631;51.516;-0.470;2023-05-19T06:56:59;102482.53;;;14.31;29.65
39954;BME280;25631;51.516;-0.470;2023-05-19T06:59:35;102488.17;;;14.43;29.74
39954;BME280;25631;51.516;-0.470;2023-05-19T07:02:12;102483.44;;;14.37;29.95
39954;BME280;25631;51.516;-0.470;2023-05-19T07:04:49;102482.52;;;14.42;30.03
39954;BME280;25631;51.516;-0.470;2023-05-19T07:07:25;102482.53;;;14.35;29.88
39954;BME280;25631;51.516;-0.470;2023-05-19T07:10:02;102485.75;;;14.14;30.13
39954;BME280;25631;51.516;-0.470;2023-05-19T07:12:38;102489.45;;;14.15;30.17
39954;BME280;25631;51.516;-0.470;2023-05-19T07:15:15;102491.56;;;14.25;30.29
39954;BME280;25631;51.516;-0.470;2023-05-19T07:17:52;102497.85;;;14.55;30.40
39954;BME280;25631;51.516;-0.470;2023-05-19T07:20:28;102501.76;;;14.25;30.43
39954;BME280;25631;51.516;-0.470;2023-05-19T07:23:05;102502.59;;;14.18;30.58
39954;BME280;25631;51.516;-0.470;2023-05-19T07:25:41;102499.67;;;13.94;30.99
39954;BME280;25631;51.516;-0.470;2023-05-19T07:28:18;102492.18;;;14.15;30.96
39954;BME280;25631;51.516;-0.470;2023-05-19T07:30:55;102487.84;;;14.38;30.87
39954;BME280;25631;51.516;-0.470;2023-05-19T07:33:31;102484.42;;;14.46;30.75
39954;BME280;25631;51.516;-0.470;2023-05-19T07:36:08;102482.73;;;14.38;30.83
39954;BME280;25631;51.516;-0.470;2023-05-19T07:38:45;102481.13;;;14.51;30.85
39954;BME280;25631;51.516;-0.470;2023-05-19T07:41:21;102482.57;;;15.05;30.88
39954;BME280;25631;51.516;-0.470;2023-05-19T07:43:57;102479.06;;;14.82;30.62
39954;BME280;25631;51.516;-0.470;2023-05-19T07:46:34;102478.06;;;14.85;30.64
39954;BME280;25631;51.516;-0.470;2023-05-19T07:49:11;102483.12;;;14.88;30.71
39954;BME280;25631;51.516;-0.470;2023-05-19T07:51:47;102489.17;;;14.97;30.58
39954;BME280;25631;51.516;-0.470;2023-05-19T07:54:24;102496.46;;;15.41;30.27
39954;BME280;25631;51.516;-0.470;2023-05-19T07:57:01;102494.81;;;15.45;30.25
39954;BME280;25631;51.516;-0.470;2023-05-19T07:59:38;102489.67;;;15.63;30.19
39954;BME280;25631;51.516;-0.470;2023-05-19T08:02:14;102497.05;;;15.52;30.11
39954;BME280;25631;51.516;-0.470;2023-05-19T08:04:51;102502.65;;;15.57;29.62
39954;BME280;25631;51.516;-0.470;2023-05-19T08:07:27;102504.62;;;15.47;29.40
39954;BME280;25631;51.516;-0.470;2023-05-19T08:10:04;102500.70;;;15.53;29.08
39954;BME280;25631;51.516;-0.470;2023-05-19T08:12:41;102503.24;;;15.65;29.06
39954;BME280;25631;51.516;-0.470;2023-05-19T08:15:18;102519.39;;;15.70;29.00
39954;BME280;25631;51.516;-0.470;2023-05-19T08:17:55;102520.71;;;15.99;28.88
39954;BME280;25631;51.516;-0.470;2023-05-19T08:20:31;102521.51;;;16.02;28.95
39954;BME280;25631;51.516;-0.470;2023-05-19T08:23:08;102512.27;;;15.83;29.15
39954;BME280;25631;51.516;-0.470;2023-05-19T08:25:46;102508.76;;;15.88;29.34
39954;BME280;25631;51.516;-0.470;2023-05-19T08:28:22;102515.65;;;15.85;29.48
39954;BME280;25631;51.516;-0.470;2023-05-19T08:30:59;102521.73;;;15.90;29.58
39954;BME280;25631;51.516;-0.470;2023-05-19T08:33:35;102525.11;;;15.97;29.60
39954;BME280;25631;51.516;-0.470;2023-05-19T08:36:12;102526.26;;;15.96;29.48
39954;BME280;25631;51.516;-0.470;2023-05-19T08:38:49;102524.31;;;16.05;29.47
39954;BME280;25631;51.516;-0.470;2023-05-19T08:41:25;102518.60;;;16.17;29.36
39954;BME280;25631;51.516;-0.470;2023-05-19T08:44:02;102514.02;;;16.21;29.12
39954;BME280;25631;51.516;-0.470;2023-05-19T08:46:39;102509.30;;;16.27;29.05
39954;BME280;25631;51.516;-0.470;2023-05-19T08:49:22;102507.81;;;16.28;28.89
39954;BME280;25631;51.516;-0.470;2023-05-19T08:52:14;102507.20;;;16.41;28.58
39954;BME280;25631;51.516;-0.470;2023-05-19T08:54:56;102502.99;;;16.55;28.41
39954;BME280;25631;51.516;-0.470;2023-05-19T08:57:36;102501.48;;;16.59;28.28
39954;BME280;25631;51.516;-0.470;2023-05-19T09:00:15;102497.91;;;16.59;28.20
39954;BME280;25631;51.516;-0.470;2023-05-19T09:02:52;102495.02;;;17.04;28.36
39954;BME280;25631;51.516;-0.470;2023-05-19T09:05:30;102494.48;;;16.69;28.43
39954;BME280;25631;51.516;-0.470;2023-05-19T09:08:07;102491.73;;;17.12;28.40
39954;BME280;25631;51.516;-0.470;2023-05-19T09:10:43;102491.96;;;16.82;28.59
39954;BME280;25631;51.516;-0.470;2023-05-19T09:13:20;102494.81;;;16.81;28.73
39954;BME280;25631;51.516;-0.470;2023-05-19T09:15:57;102493.28;;;16.82;28.82
39954;BME280;25631;51.516;-0.470;2023-05-19T09:18:37;102487.30;;;16.82;28.80
39954;BME280;25631;51.516;-0.470;2023-05-19T09:21:15;102485.35;;;17.00;28.82
39954;BME280;25631;51.516;-0.470;2023-05-19T09:23:51;102484.73;;;17.00;28.79
39954;BME280;25631;51.516;-0.470;2023-05-19T09:26:35;102487.35;;;17.23;28.77
39954;BME280;25631;51.516;-0.470;2023-05-19T09:29:13;102484.56;;;17.23;28.81
39954;BME280;25631;51.516;-0.470;2023-05-19T09:31:51;102483.85;;;17.26;28.83
39954;BME280;25631;51.516;-0.470;2023-05-19T09:34:28;102484.49;;;17.14;28.60
39954;BME280;25631;51.516;-0.470;2023-05-19T09:37:04;102483.07;;;17.08;28.39
39954;BME280;25631;51.516;-0.470;2023-05-19T09:39:43;102478.40;;;17.18;28.32
39954;BME280;25631;51.516;-0.470;2023-05-19T09:42:23;102482.25;;;17.06;28.22
39954;BME280;25631;51.516;-0.470;2023-05-19T09:45:01;102484.88;;;17.16;28.53
39954;BME280;25631;51.516;-0.470;2023-05-19T09:47:38;102485.78;;;17.09;28.59
39954;BME280;25631;51.516;-0.470;2023-05-19T09:50:15;102487.00;;;17.44;28.58
39954;BME280;25631;51.516;-0.470;2023-05-19T09:52:52;102484.59;;;17.58;28.40
39954;BME280;25631;51.516;-0.470;2023-05-19T09:55:28;102477.38;;;17.55;28.40
39954;BME280;25631;51.516;-0.470;2023-05-19T09:58:06;102475.82;;;17.71;28.48
39954;BME280;25631;51.516;-0.470;2023-05-19T10:00:42;102477.47;;;17.66;28.49
39954;BME280;25631;51.516;-0.470;2023-05-19T10:03:20;102483.91;;;17.71;28.58
39954;BME280;25631;51.516;-0.470;2023-05-19T10:06:00;102490.37;;;17.84;28.46
39954;BME280;25631;51.516;-0.470;2023-05-19T10:08:36;102495.46;;;17.89;28.48
39954;BME280;25631;51.516;-0.470;2023-05-19T10:11:15;102490.24;;;18.12;28.55
39954;BME280;25631;51.516;-0.470;2023-05-19T10:13:52;102489.13;;;18.26;28.38
39954;BME280;25631;51.516;-0.470;2023-05-19T10:16:29;102488.63;;;18.10;28.24
39954;BME280;25631;51.516;-0.470;2023-05-19T10:19:07;102483.22;;;18.03;27.60
39954;BME280;25631;51.516;-0.470;2023-05-19T10:21:45;102485.85;;;18.32;27.60
39954;BME280;25631;51.516;-0.470;2023-05-19T10:24:22;102486.06;;;18.47;27.61
39954;BME280;25631;51.516;-0.470;2023-05-19T10:27:02;102488.92;;;18.11;27.41
39954;BME280;25631;51.516;-0.470;2023-05-19T10:29:44;102495.15;;;18.25;27.40
39954;BME280;25631;51.516;-0.470;2023-05-19T10:32:28;102493.59;;;18.46;27.03
39954;BME280;25631;51.516;-0.470;2023-05-19T10:35:17;102491.93;;;18.34;26.57
39954;BME280;25631;51.516;-0.470;2023-05-19T10:38:04;102488.43;;;18.13;26.82
39954;BME280;25631;51.516;-0.470;2023-05-19T10:40:58;102490.32;;;18.23;26.76
39954;BME280;25631;51.516;-0.470;2023-05-19T10:43:44;102486.54;;;18.07;26.61
39954;BME280;25631;51.516;-0.470;2023-05-19T10:46:25;102485.38;;;18.16;26.52
39954;BME280;25631;51.516;-0.470;2023-05-19T10:49:02;102484.64;;;18.62;26.45
39954;BME280;25631;51.516;-0.470;2023-05-19T10:51:38;102479.28;;;18.27;26.11
39954;BME280;25631;51.516;-0.470;2023-05-19T10:54:15;102478.66;;;18.17;26.01
39954;BME280;25631;51.516;-0.470;2023-05-19T10:56:56;102474.88;;;18.35;26.26
39954;BME280;25631;51.516;-0.470;2023-05-19T10:59:35;102469.38;;;18.34;26.31
39954;BME280;25631;51.516;-0.470;2023-05-19T11:02:37;102469.92;;;18.51;26.39
39954;BME280;25631;51.516;-0.470;2023-05-19T11:05:14;102470.84;;;18.12;26.46
39954;BME280;25631;51.516;-0.470;2023-05-19T11:07:55;102469.01;;;18.44;26.26
39954;BME280;25631;51.516;-0.470;2023-05-19T11:10:32;102466.97;;;18.26;25.56
39954;BME280;25631;51.516;-0.470;2023-05-19T11:13:18;102467.19;;;18.16;25.43
39954;BME280;25631;51.516;-0.470;2023-05-19T11:15:55;102462.08;;;18.37;25.35
39954;BME280;25631;51.516;-0.470;2023-05-19T11:18:31;102458.14;;;18.38;25.59
39954;BME280;25631;51.516;-0.470;2023-05-19T11:21:08;102455.87;;;18.41;25.64
39954;BME280;25631;51.516;-0.470;2023-05-19T11:23:45;102449.45;;;18.37;25.64
39954;BME280;25631;51.516;-0.470;2023-05-19T11:26:54;102444.59;;;18.33;25.03
39954;BME280;25631;51.516;-0.470;2023-05-19T11:29:31;102447.48;;;18.07;25.54
39954;BME280;25631;51.516;-0.470;2023-05-19T11:32:08;102449.90;;;18.64;25.17
39954;BME280;25631;51.516;-0.470;2023-05-19T11:34:47;102451.48;;;18.75;24.94
39954;BME280;25631;51.516;-0.470;2023-05-19T11:37:24;102447.08;;;18.58;24.97
39954;BME280;25631;51.516;-0.470;2023-05-19T11:40:01;102443.63;;;18.77;24.62
39954;BME280;25631;51.516;-0.470;2023-05-19T11:42:38;102445.36;;;18.96;24.47
39954;BME280;25631;51.516;-0.470;2023-05-19T11:45:15;102444.51;;;19.15;24.46
39954;BME280;25631;51.516;-0.470;2023-05-19T11:47:53;102443.84;;;19.31;24.84
39954;BME280;25631;51.516;-0.470;2023-05-19T11:50:30;102440.51;;;18.96;24.79
39954;BME280;25631;51.516;-0.470;2023-05-19T11:53:07;102440.31;;;19.47;24.65
39954;BME280;25631;51.516;-0.470;2023-05-19T11:55:47;102438.76;;;19.33;24.75
39954;BME280;25631;51.516;-0.470;2023-05-19T11:58:24;102437.23;;;19.72;24.92
39954;BME280;25631;51.516;-0.470;2023-05-19T12:01:03;102430.63;;;19.57;24.74
39954;BME280;25631;51.516;-0.470;2023-05-19T12:03:39;102427.15;;;19.64;24.73
39954;BME280;25631;51.516;-0.470;2023-05-19T12:06:16;102420.36;;;19.63;24.52
39954;BME280;25631;51.516;-0.470;2023-05-19T12:08:54;102422.13;;;19.79;24.36
39954;BME280;25631;51.516;-0.470;2023-05-19T12:11:31;102415.78;;;19.74;24.07
39954;BME280;25631;51.516;-0.470;2023-05-19T12:14:08;102417.09;;;19.90;24.05
39954;BME280;25631;51.516;-0.470;2023-05-19T12:16:45;102417.81;;;19.99;24.10
39954;BME280;25631;51.516;-0.470;2023-05-19T12:19:22;102422.56;;;20.13;23.83
39954;BME280;25631;51.516;-0.470;2023-05-19T12:21:59;102421.20;;;20.05;23.82
39954;BME280;25631;51.516;-0.470;2023-05-19T12:24:37;102425.51;;;20.12;23.67
39954;BME280;25631;51.516;-0.470;2023-05-19T12:27:17;102420.65;;;20.24;23.83
39954;BME280;25631;51.516;-0.470;2023-05-19T12:29:55;102419.62;;;20.29;23.91
39954;BME280;25631;51.516;-0.470;2023-05-19T12:32:33;102417.03;;;20.54;23.73
39954;BME280;25631;51.516;-0.470;2023-05-19T12:35:09;102416.62;;;20.66;23.76
39954;BME280;25631;51.516;-0.470;2023-05-19T12:37:46;102419.54;;;20.85;23.04
39954;BME280;25631;51.516;-0.470;2023-05-19T12:40:22;102421.00;;;20.47;22.92
39954;BME280;25631;51.516;-0.470;2023-05-19T12:42:59;102421.14;;;20.74;22.62
39954;BME280;25631;51.516;-0.470;2023-05-19T12:45:36;102419.57;;;20.77;22.35
39954;BME280;25631;51.516;-0.470;2023-05-19T12:48:14;102419.16;;;20.70;22.14
39954;BME280;25631;51.516;-0.470;2023-05-19T12:50:51;102419.58;;;20.62;22.17
39954;BME280;25631;51.516;-0.470;2023-05-19T12:53:28;102416.53;;;20.49;21.93
39954;BME280;25631;51.516;-0.470;2023-05-19T12:56:11;102421.07;;;20.45;22.06
39954;BME280;25631;51.516;-0.470;2023-05-19T12:58:52;102417.51;;;20.49;21.83
39954;BME280;25631;51.516;-0.470;2023-05-19T13:01:29;102415.83;;;20.86;21.99
39954;BME280;25631;51.516;-0.470;2023-05-19T13:04:06;102418.42;;;20.98;21.91
39954;BME280;25631;51.516;-0.470;2023-05-19T13:06:43;102421.24;;;20.71;21.77
39954;BME280;25631;51.516;-0.470;2023-05-19T13:09:19;102417.44;;;20.57;21.65
39954;BME280;25631;51.516;-0.470;2023-05-19T13:11:56;102419.07;;;20.69;21.87
39954;BME280;25631;51.516;-0.470;2023-05-19T13:14:34;102414.79;;;20.19;21.94
39954;BME280;25631;51.516;-0.470;2023-05-19T13:17:11;102414.09;;;20.52;22.02
39954;BME280;25631;51.516;-0.470;2023-05-19T13:19:48;102411.72;;;20.90;22.11
39954;BME280;25631;51.516;-0.470;2023-05-19T13:22:24;102411.37;;;20.69;21.83
39954;BME280;25631;51.516;-0.470;2023-05-19T13:25:01;102412.65;;;20.82;21.74
39954;BME280;25631;51.516;-0.470;2023-05-19T13:27:38;102410.40;;;20.64;21.90
39954;BME280;25631;51.516;-0.470;2023-05-19T13:30:15;102409.84;;;20.40;21.98
39954;BME280;25631;51.516;-0.470;2023-05-19T13:32:52;102409.33;;;20.88;21.91
39954;BME280;25631;51.516;-0.470;2023-05-19T13:35:29;102404.97;;;20.73;22.04